createdAt,value
2022-09-17T00:00:06.232Z,1018.64
2022-09-17T00:05:02.963Z,1018.69
2022-09-17T00:10:04.335Z,1018.7
2022-09-17T00:15:04.038Z,1018.78
2022-09-17T00:20:06.138Z,1018.82
2022-09-17T00:25:03.024Z,1018.82
2022-09-17T00:30:05.319Z,1018.84
2022-09-17T00:35:03.041Z,1018.87
2022-09-17T00:40:04.357Z,1018.83
2022-09-17T00:45:02.951Z,1018.83
2022-09-17T00:50:04.283Z,1018.88
2022-09-17T00:55:02.919Z,1018.84
2022-09-17T01:00:05.949Z,1018.82
2022-09-17T01:05:03.018Z,1018.83
2022-09-17T01:10:04.236Z,1018.86
2022-09-17T01:15:04.046Z,1018.92
2022-09-17T01:20:04.247Z,1018.9
2022-09-17T01:25:03.091Z,1018.9
2022-09-17T01:30:04.311Z,1018.9
2022-09-17T01:35:03.013Z,1018.84
2022-09-17T01:40:04.197Z,1018.85
2022-09-17T01:45:03.269Z,1018.82
2022-09-17T01:50:04.189Z,1018.77
2022-09-17T01:55:03.069Z,1018.78
2022-09-17T02:00:05.623Z,1018.77
2022-09-17T02:05:02.946Z,1018.71
2022-09-17T02:10:04.139Z,1018.76
2022-09-17T02:15:03.083Z,1018.82
2022-09-17T02:20:04.121Z,1018.78
2022-09-17T02:25:03.110Z,1018.74
2022-09-17T02:30:05.332Z,1018.71
2022-09-17T02:35:03.018Z,1018.71
2022-09-17T02:40:04.139Z,1018.7
2022-09-17T02:45:02.986Z,1018.66
2022-09-17T02:50:04.009Z,1018.57
2022-09-17T02:55:02.876Z,1018.56
2022-09-17T03:00:06.091Z,1018.49
2022-09-17T03:05:02.995Z,1018.39
2022-09-17T03:10:04.412Z,1018.36
2022-09-17T03:15:02.909Z,1018.3
2022-09-17T03:20:04.200Z,1018.29
2022-09-17T03:25:03.067Z,1018.32
2022-09-17T03:30:05.956Z,1018.31
2022-09-17T03:35:02.927Z,1018.32
2022-09-17T03:40:04.498Z,1018.31
2022-09-17T03:45:02.990Z,1018.16
2022-09-17T03:50:04.163Z,1018.09
2022-09-17T03:55:02.988Z,1018.04
2022-09-17T04:00:05.135Z,1017.98
2022-09-17T04:05:02.937Z,1017.97
2022-09-17T04:10:04.346Z,1017.9
2022-09-17T04:15:02.987Z,1017.83
2022-09-17T04:20:04.128Z,1017.75
2022-09-17T04:25:03.011Z,1017.73
2022-09-17T04:30:05.184Z,1017.73
2022-09-17T04:35:03.008Z,1017.78
2022-09-17T04:40:07.641Z,1017.8
2022-09-17T04:45:02.956Z,1017.84
2022-09-17T04:50:04.202Z,1017.9
2022-09-17T04:55:02.881Z,1017.94
2022-09-17T05:00:06.069Z,1017.92
2022-09-17T05:05:02.946Z,1017.86
2022-09-17T05:10:04.100Z,1017.81
2022-09-17T05:15:02.935Z,1017.72
2022-09-17T05:20:04.042Z,1017.7
2022-09-17T05:25:03.197Z,1017.63
2022-09-17T05:30:04.422Z,1017.61
2022-09-17T05:35:05.536Z,1017.56
2022-09-17T05:40:04.241Z,1017.52
2022-09-17T05:45:02.942Z,1017.56
2022-09-17T05:50:04.086Z,1017.57
2022-09-17T05:55:03.037Z,1017.56
2022-09-17T06:00:05.377Z,1017.56
2022-09-17T06:05:03.020Z,1017.52
2022-09-17T06:10:05.217Z,1017.49
2022-09-17T06:15:02.917Z,1017.44
2022-09-17T06:20:03.983Z,1017.51
2022-09-17T06:25:02.969Z,1017.49
2022-09-17T06:30:05.000Z,1017.55
2022-09-17T06:35:04.005Z,1017.42
2022-09-17T06:40:04.251Z,1017.41
2022-09-17T06:45:07.201Z,1017.41
2022-09-17T06:50:04.290Z,1017.38
2022-09-17T06:55:02.941Z,1017.42
2022-09-17T07:00:06.109Z,1017.37
2022-09-17T07:05:02.899Z,1017.34
2022-09-17T07:10:04.418Z,1017.4
2022-09-17T07:15:03.029Z,1017.39
2022-09-17T07:20:04.145Z,1017.44
2022-09-17T07:25:03.015Z,1017.44
2022-09-17T07:30:05.424Z,1017.47
2022-09-17T07:35:02.917Z,1017.55
2022-09-17T07:40:04.173Z,1017.68
2022-09-17T07:45:02.936Z,1017.75
2022-09-17T07:50:04.253Z,1017.82
2022-09-17T07:55:02.958Z,1017.84
2022-09-17T08:00:06.043Z,1017.96
2022-09-17T08:05:02.974Z,1017.99
2022-09-17T08:10:04.212Z,1018.09
2022-09-17T08:15:03.032Z,1018.15
2022-09-17T08:20:06.097Z,1018.23
2022-09-17T08:25:02.957Z,1018.31
2022-09-17T08:30:05.105Z,1018.4
2022-09-17T08:35:03.041Z,1018.56
2022-09-17T08:40:04.188Z,1018.63
2022-09-17T08:45:03.015Z,1018.71
2022-09-17T08:50:04.113Z,1018.8
2022-09-17T08:55:02.973Z,1018.82
2022-09-17T09:00:04.293Z,1018.92
2022-09-17T09:05:02.960Z,1019.1
2022-09-17T09:10:04.122Z,1019.17
2022-09-17T09:15:02.959Z,1019.18
2022-09-17T09:20:04.141Z,1019.27
2022-09-17T09:25:03.033Z,1019.31
2022-09-17T09:30:06.161Z,1019.35
2022-09-17T09:35:02.985Z,1019.35
2022-09-17T09:40:04.095Z,1019.38
2022-09-17T09:45:05.288Z,1019.43
2022-09-17T09:50:04.270Z,1019.52
2022-09-17T09:55:02.967Z,1019.6
2022-09-17T10:00:05.422Z,1019.64
2022-09-17T10:05:03.039Z,1019.71
2022-09-17T10:10:04.168Z,1019.8
2022-09-17T10:15:02.906Z,1019.86
2022-09-17T10:20:04.194Z,1019.94
2022-09-17T10:25:02.920Z,1020.09
2022-09-17T10:30:04.327Z,1020.15
2022-09-17T10:35:03.051Z,1020.19
2022-09-17T10:40:04.137Z,1020.27
2022-09-17T10:45:03.019Z,1020.31
2022-09-17T10:50:04.243Z,1020.35
2022-09-17T10:55:03.081Z,1020.4
2022-09-17T11:00:04.225Z,1020.49
2022-09-17T11:05:03.086Z,1020.53
2022-09-17T11:10:03.992Z,1020.59
2022-09-17T11:15:03.135Z,1020.71
2022-09-17T11:20:04.144Z,1020.76
2022-09-17T11:25:03.105Z,1020.84
2022-09-17T11:30:05.904Z,1020.88
2022-09-17T11:35:02.987Z,1020.88
2022-09-17T11:40:04.251Z,1020.92
2022-09-17T11:45:02.886Z,1020.92
2022-09-17T11:50:04.154Z,1020.97
2022-09-17T11:55:02.993Z,1021.04
2022-09-17T12:00:06.146Z,1021.02
2022-09-17T12:05:03.162Z,1020.99
2022-09-17T12:10:09.322Z,1020.95
2022-09-17T12:15:02.986Z,1020.93
2022-09-17T12:20:04.184Z,1020.92
2022-09-17T12:25:03.022Z,1020.94
2022-09-17T12:30:06.017Z,1020.86
2022-09-17T12:35:02.960Z,1020.82
2022-09-17T12:40:04.164Z,1020.82
2022-09-17T12:45:02.993Z,1020.84
2022-09-17T12:50:04.173Z,1020.84
2022-09-17T12:55:02.986Z,1020.89
2022-09-17T13:00:08.058Z,1020.89
2022-09-17T13:05:03.169Z,1020.93
2022-09-17T13:10:04.171Z,1020.94
2022-09-17T13:15:02.924Z,1020.94
2022-09-17T13:20:04.129Z,1020.99
2022-09-17T13:25:03.053Z,1021.03
2022-09-17T13:30:06.219Z,1021.07
2022-09-17T13:35:03.037Z,1021.05
2022-09-17T13:40:04.326Z,1021.05
2022-09-17T13:45:03.093Z,1020.97
2022-09-17T13:50:09.147Z,1020.95
2022-09-17T13:55:03.040Z,1020.93
2022-09-17T14:00:05.990Z,1020.83
2022-09-17T14:05:03.101Z,1020.77
2022-09-17T14:10:04.197Z,1020.7
2022-09-17T14:15:03.026Z,1020.7
2022-09-17T14:20:04.203Z,1020.57
2022-09-17T14:25:02.925Z,1020.48
2022-09-17T14:30:05.238Z,1020.45
2022-09-17T14:35:03.003Z,1020.31
2022-09-17T14:40:06.104Z,1020.2
2022-09-17T14:45:02.956Z,1020.17
2022-09-17T14:50:04.267Z,1020.13
2022-09-17T14:55:03.033Z,1020.1
2022-09-17T15:00:10.285Z,1019.96
2022-09-17T15:05:02.968Z,1019.83
2022-09-17T15:10:04.167Z,1019.73
2022-09-17T15:15:03.128Z,1019.69
2022-09-17T15:20:04.208Z,1019.53
2022-09-17T15:25:02.962Z,1019.41
2022-09-17T15:30:04.655Z,1019.26
2022-09-17T15:35:03.043Z,1019.17
2022-09-17T15:40:04.292Z,1019.07
2022-09-17T15:45:02.971Z,1018.95
2022-09-17T15:50:04.166Z,1018.85
2022-09-17T15:55:03.037Z,1018.82
2022-09-17T16:00:04.434Z,1018.71
2022-09-17T16:05:03.931Z,1018.59
2022-09-17T16:10:04.309Z,1018.41
2022-09-17T16:15:02.906Z,1018.18
2022-09-17T16:20:06.323Z,1018.03
2022-09-17T16:25:03.117Z,1017.84
2022-09-17T16:30:06.140Z,1017.73
2022-09-17T16:35:02.994Z,1017.7
2022-09-17T16:40:04.260Z,1017.69
2022-09-17T16:45:03.118Z,1017.66
2022-09-17T16:50:04.249Z,1017.48
2022-09-17T16:55:02.952Z,1017.54
2022-09-17T17:00:06.163Z,1017.55
2022-09-17T17:05:02.953Z,1017.53
2022-09-17T17:10:04.645Z,1017.5
2022-09-17T17:15:03.118Z,1017.44
2022-09-17T17:20:04.123Z,1017.26
2022-09-17T17:25:02.966Z,1017.22
2022-09-17T17:30:05.227Z,1017.11
2022-09-17T17:35:02.999Z,1017.06
2022-09-17T17:40:04.238Z,1016.93
2022-09-17T17:45:03.095Z,1016.88
2022-09-17T17:50:04.115Z,1016.78
2022-09-17T17:55:02.897Z,1016.64
2022-09-17T18:00:06.094Z,1016.65
2022-09-17T18:05:04.424Z,1016.51
2022-09-17T18:10:04.200Z,1016.44
2022-09-17T18:15:03.007Z,1016.39
2022-09-17T18:20:04.201Z,1016.22
2022-09-17T18:25:02.983Z,1016.11
2022-09-17T18:30:11.028Z,1015.99
2022-09-17T18:35:03.126Z,1015.94
2022-09-17T18:40:04.268Z,1015.89
2022-09-17T18:45:02.925Z,1015.76
2022-09-17T18:50:04.230Z,1015.59
2022-09-17T18:55:02.936Z,1015.58
2022-09-17T19:00:06.067Z,1015.63
2022-09-17T19:05:03.009Z,1015.54
2022-09-17T19:10:04.179Z,1015.49
2022-09-17T19:15:03.118Z,1015.27
2022-09-17T19:20:04.257Z,1015.26
2022-09-17T19:25:02.945Z,1015.25
2022-09-17T19:30:04.329Z,1015.23
2022-09-17T19:35:03.047Z,1015.1
2022-09-17T19:40:04.285Z,1014.96
2022-09-17T19:45:02.998Z,1014.87
2022-09-17T19:50:04.181Z,1014.83
2022-09-17T19:55:03.133Z,1014.73
2022-09-17T20:00:04.436Z,1014.82
2022-09-17T20:05:03.029Z,1014.78
2022-09-17T20:10:04.178Z,1014.62
2022-09-17T20:15:03.018Z,1014.62
2022-09-17T20:20:04.412Z,1014.63
2022-09-17T20:25:04.017Z,1014.7
2022-09-17T20:30:06.074Z,1014.71
2022-09-17T20:35:02.917Z,1014.71
2022-09-17T20:40:04.069Z,1014.68
2022-09-17T20:45:02.996Z,1014.71
2022-09-17T20:50:04.232Z,1014.72
2022-09-17T20:55:03.023Z,1014.72
2022-09-17T21:00:04.426Z,1014.71
2022-09-17T21:05:02.943Z,1014.71
2022-09-17T21:10:04.247Z,1014.69
2022-09-17T21:20:04.078Z,1014.68
2022-09-17T21:25:02.994Z,1014.69
2022-09-17T21:30:04.536Z,1014.68
2022-09-17T21:35:02.964Z,1014.66
2022-09-17T21:40:04.393Z,1014.7
2022-09-17T21:45:02.950Z,1014.73
2022-09-17T21:50:04.119Z,1014.73
2022-09-17T21:55:03.105Z,1014.76
2022-09-17T22:00:04.414Z,1014.75
2022-09-17T22:05:03.153Z,1014.77
2022-09-17T22:10:09.244Z,1014.81
2022-09-17T22:15:04.111Z,1014.92
2022-09-17T22:20:04.292Z,1015.04
2022-09-17T22:25:03.078Z,1015.13
2022-09-17T22:30:04.437Z,1015.31
2022-09-17T22:35:03.109Z,1015.31
2022-09-17T22:40:04.354Z,1015.24
2022-09-17T22:45:03.092Z,1015.3
2022-09-17T22:50:04.218Z,1015.38
2022-09-17T22:55:03.195Z,1015.38
2022-09-17T23:00:05.888Z,1015.41
2022-09-17T23:05:03.050Z,1015.43
2022-09-17T23:10:04.252Z,1015.39
2022-09-17T23:15:03.026Z,1015.34
2022-09-17T23:20:04.248Z,1015.38
2022-09-17T23:25:03.006Z,1015.39
2022-09-17T23:30:05.233Z,1015.4
2022-09-17T23:35:02.950Z,1015.4
2022-09-17T23:40:04.366Z,1015.4
2022-09-17T23:45:03.023Z,1015.4
2022-09-17T23:50:04.275Z,1015.38
2022-09-17T23:55:03.077Z,1015.37
